Marechal Deodoro, Brazil
Current Conditions -  °F | °C
As of 7:00 AM on Saturday 25 Oct 2014 (Local Time) from SBMO Reporting Station
Few Clouds Few Clouds  
Wind Chill: 75°   Ceiling: Unl
Heat Index: 75°   Visibility: 6mi
Dew Point: 70°   Wind: 0mph
Humidity: 83%   Direction: NA
Pressure: 29.97"   Gusts: NA
Location:  9.71°S, 35.89°W
Report Text: SBMO 251000Z 00000KT 9999 FEW020 24/21 Q1015
Loading
Personal Weather Stations






























Interactive Weather Map
Tropical Storm Tracking
New forecast layout! Learn more

10-Day Weather Forecast

Advertisements
Track Severe Weather on mobile